createdAt,value
2017-11-22T00:00:17.357Z,10.10
2017-11-22T00:02:44.787Z,10.10
2017-11-22T00:05:12.234Z,10.10
2017-11-22T00:07:39.657Z,10.10
2017-11-22T00:10:07.114Z,10.10
2017-11-22T00:12:34.542Z,10.00
2017-11-22T00:15:01.979Z,10.00
2017-11-22T00:17:29.409Z,10.00
2017-11-22T00:19:56.833Z,9.90
2017-11-22T00:22:24.264Z,9.90
2017-11-22T00:24:51.699Z,9.90
2017-11-22T00:27:19.149Z,9.90
2017-11-22T00:29:46.569Z,9.90
2017-11-22T00:32:13.998Z,9.90
2017-11-22T00:34:41.434Z,9.90
2017-11-22T00:37:08.870Z,10.00
2017-11-22T00:39:36.299Z,10.00
2017-11-22T00:42:04.521Z,10.10
2017-11-22T00:44:31.972Z,10.10
2017-11-22T00:46:59.410Z,10.20
2017-11-22T00:49:26.841Z,10.20
2017-11-22T00:51:54.271Z,10.20
2017-11-22T00:54:21.713Z,10.30
2017-11-22T00:56:49.152Z,10.30
2017-11-22T00:59:16.586Z,10.30
2017-11-22T01:01:44.025Z,10.30
2017-11-22T01:04:12.228Z,10.20
2017-11-22T01:06:39.672Z,10.20
2017-11-22T01:09:07.110Z,10.30
2017-11-22T01:11:34.538Z,10.20
2017-11-22T01:14:02.001Z,10.30
2017-11-22T01:16:29.430Z,10.30
2017-11-22T01:18:56.890Z,10.20
2017-11-22T01:21:24.372Z,10.20
2017-11-22T01:23:51.817Z,10.20
2017-11-22T01:26:19.266Z,10.20
2017-11-22T01:28:46.705Z,10.20
2017-11-22T01:31:14.158Z,10.20
2017-11-22T01:33:41.599Z,10.20
2017-11-22T01:36:09.042Z,10.20
2017-11-22T01:38:36.478Z,10.20
2017-11-22T01:41:04.691Z,10.20
2017-11-22T01:43:32.118Z,10.20
2017-11-22T01:45:59.569Z,10.20
2017-11-22T01:48:27.005Z,10.20
2017-11-22T01:50:54.458Z,10.20
2017-11-22T01:53:21.886Z,10.20
2017-11-22T01:55:49.329Z,10.10
2017-11-22T01:58:16.761Z,10.10
2017-11-22T02:00:52.921Z,10.10
2017-11-22T02:03:20.378Z,10.10
2017-11-22T02:05:47.795Z,10.10
2017-11-22T02:08:15.243Z,10.10
2017-11-22T02:10:43.393Z,10.10
2017-11-22T02:13:10.832Z,10.10
2017-11-22T02:15:38.259Z,10.00
2017-11-22T02:18:06.478Z,10.00
2017-11-22T02:20:33.902Z,10.00
2017-11-22T02:23:01.369Z,10.00
2017-11-22T02:25:28.797Z,10.00
2017-11-22T02:27:56.989Z,9.90
2017-11-22T02:30:24.433Z,9.90
2017-11-22T02:32:51.854Z,9.90
2017-11-22T02:35:19.298Z,9.80
2017-11-22T02:37:46.725Z,9.90
2017-11-22T02:40:14.166Z,9.80
2017-11-22T02:42:41.585Z,9.80
2017-11-22T02:45:09.796Z,9.80
2017-11-22T02:47:37.217Z,9.80
2017-11-22T02:50:05.422Z,9.80
2017-11-22T02:52:32.863Z,9.80
2017-11-22T02:55:01.056Z,9.80
2017-11-22T02:57:28.499Z,9.80
2017-11-22T02:59:55.937Z,9.80
2017-11-22T03:02:24.157Z,9.80
2017-11-22T03:04:51.566Z,9.80
2017-11-22T03:07:19.782Z,9.80
2017-11-22T03:09:47.201Z,9.80
2017-11-22T03:12:14.638Z,9.80
2017-11-22T03:14:42.068Z,9.80
2017-11-22T03:17:09.519Z,9.70
2017-11-22T03:19:36.950Z,9.70
2017-11-22T03:22:04.401Z,9.70
2017-11-22T03:24:31.833Z,9.70
2017-11-22T03:26:59.244Z,9.70
2017-11-22T03:29:26.678Z,9.70
2017-11-22T03:31:54.113Z,9.70
2017-11-22T03:34:21.547Z,9.60
2017-11-22T03:36:48.977Z,9.60
2017-11-22T03:39:16.413Z,9.60
2017-11-22T03:41:43.842Z,9.60
2017-11-22T03:44:11.286Z,9.60
2017-11-22T03:46:38.698Z,9.60
2017-11-22T03:49:06.142Z,9.60
2017-11-22T03:51:39.253Z,9.60
2017-11-22T03:54:06.691Z,9.60
2017-11-22T03:56:34.117Z,9.60
2017-11-22T03:59:01.552Z,9.60
2017-11-22T04:01:28.978Z,9.60
2017-11-22T04:03:59.216Z,9.60
2017-11-22T04:06:26.641Z,9.60
2017-11-22T04:08:54.087Z,9.60
2017-11-22T04:11:22.329Z,9.60
2017-11-22T04:13:49.770Z,9.60
2017-11-22T04:16:17.204Z,9.60
2017-11-22T04:18:48.633Z,9.70
2017-11-22T04:21:16.068Z,9.70
2017-11-22T04:23:43.490Z,9.70
2017-11-22T04:26:10.931Z,9.80
2017-11-22T04:28:38.354Z,9.80
2017-11-22T04:31:06.773Z,9.80
2017-11-22T04:33:34.200Z,9.80
2017-11-22T04:36:01.646Z,9.80
2017-11-22T04:38:29.123Z,9.80
2017-11-22T04:40:56.562Z,9.80
2017-11-22T04:43:23.985Z,9.80
2017-11-22T04:45:51.413Z,9.80
2017-11-22T04:48:18.854Z,9.70
2017-11-22T04:50:47.058Z,9.60
2017-11-22T04:53:14.495Z,9.60
2017-11-22T04:55:44.489Z,9.60
2017-11-22T04:58:11.920Z,9.60
2017-11-22T05:00:39.350Z,9.60
2017-11-22T05:03:06.798Z,9.50
2017-11-22T05:05:34.222Z,9.50
2017-11-22T05:08:01.671Z,9.50
2017-11-22T05:10:29.098Z,9.40
2017-11-22T05:12:56.909Z,9.40
2017-11-22T05:15:24.346Z,9.40
2017-11-22T05:17:51.814Z,9.40
2017-11-22T05:20:19.293Z,9.30
2017-11-22T05:22:46.730Z,9.20
2017-11-22T05:25:14.920Z,9.10
2017-11-22T05:27:42.354Z,9.10
2017-11-22T05:30:10.553Z,9.00
2017-11-22T05:32:37.989Z,9.00
2017-11-22T05:35:06.182Z,8.80
2017-11-22T05:37:33.637Z,8.90
2017-11-22T05:40:01.984Z,8.80
2017-11-22T05:42:29.418Z,8.70
2017-11-22T05:44:56.849Z,8.70
2017-11-22T05:47:24.296Z,8.70
2017-11-22T05:49:51.726Z,8.70
2017-11-22T05:52:19.165Z,8.60
2017-11-22T05:54:47.369Z,8.50
2017-11-22T05:57:14.793Z,8.50
2017-11-22T05:59:42.254Z,8.50
2017-11-22T06:02:09.690Z,8.40
2017-11-22T06:04:37.126Z,8.40
2017-11-22T06:07:04.560Z,8.30
2017-11-22T06:09:32.090Z,8.30
2017-11-22T06:11:59.529Z,8.20
2017-11-22T06:14:26.978Z,8.10
2017-11-22T06:16:54.409Z,8.10
2017-11-22T06:19:21.860Z,8.00
2017-11-22T06:21:49.345Z,7.90
2017-11-22T06:24:16.789Z,7.90
2017-11-22T06:26:44.270Z,7.90
2017-11-22T06:29:11.706Z,7.90
2017-11-22T06:31:39.146Z,7.80
2017-11-22T06:34:06.586Z,7.80
2017-11-22T06:36:34.034Z,7.80
2017-11-22T06:39:05.390Z,7.80
2017-11-22T06:41:32.834Z,7.80
2017-11-22T06:44:00.284Z,7.80
2017-11-22T06:46:27.725Z,7.80
2017-11-22T06:48:56.285Z,7.80
2017-11-22T06:51:23.721Z,7.80
2017-11-22T06:53:51.162Z,7.80
2017-11-22T06:56:18.606Z,7.80
2017-11-22T06:58:46.045Z,7.70
2017-11-22T07:01:18.073Z,7.70
2017-11-22T07:03:51.842Z,7.70
2017-11-22T07:06:19.294Z,7.70
2017-11-22T07:08:46.733Z,7.70
2017-11-22T07:11:14.173Z,7.60
2017-11-22T07:13:41.634Z,7.60
2017-11-22T07:16:09.077Z,7.60
2017-11-22T07:18:36.529Z,7.60
2017-11-22T07:21:03.971Z,7.60
2017-11-22T07:23:31.421Z,7.60
2017-11-22T07:25:58.867Z,7.60
2017-11-22T07:28:26.311Z,7.60
2017-11-22T07:30:53.747Z,7.60
2017-11-22T07:33:21.192Z,7.60
2017-11-22T07:35:54.179Z,7.70
2017-11-22T07:38:21.626Z,7.70
2017-11-22T07:40:49.056Z,7.80
2017-11-22T07:43:16.513Z,7.80
2017-11-22T07:45:44.719Z,7.90
2017-11-22T07:48:15.043Z,7.80
2017-11-22T07:50:44.906Z,7.90
2017-11-22T07:53:12.334Z,7.90
2017-11-22T07:55:39.786Z,8.00
2017-11-22T07:58:07.235Z,8.00
2017-11-22T08:00:35.281Z,8.00
2017-11-22T08:03:08.643Z,8.10
2017-11-22T08:05:36.090Z,8.10
2017-11-22T08:08:03.517Z,8.20
2017-11-22T08:10:30.961Z,8.20
2017-11-22T08:12:58.382Z,8.30
2017-11-22T08:15:25.818Z,8.30
2017-11-22T08:17:53.252Z,8.40
2017-11-22T08:20:20.713Z,8.40
2017-11-22T08:22:48.154Z,8.50
2017-11-22T08:25:15.594Z,8.50
2017-11-22T08:27:43.031Z,8.50
2017-11-22T08:30:10.457Z,8.60
2017-11-22T08:32:38.683Z,8.80
2017-11-22T08:35:06.102Z,8.80
2017-11-22T08:37:33.546Z,8.90
2017-11-22T08:40:00.975Z,9.00
2017-11-22T08:42:31.210Z,9.10
2017-11-22T08:44:58.637Z,9.20
2017-11-22T08:47:26.069Z,9.30
2017-11-22T08:49:53.509Z,9.40
2017-11-22T08:52:20.966Z,9.50
2017-11-22T08:54:54.894Z,9.50
2017-11-22T08:57:28.046Z,9.50
2017-11-22T09:00:01.172Z,9.60
2017-11-22T09:02:28.588Z,9.60
2017-11-22T09:04:57.713Z,9.70
2017-11-22T09:07:25.152Z,9.70
2017-11-22T09:09:52.580Z,9.80
2017-11-22T09:12:25.565Z,9.90
2017-11-22T09:14:54.805Z,10.10
2017-11-22T09:17:22.412Z,10.20
2017-11-22T09:19:49.861Z,10.30
2017-11-22T09:22:17.299Z,10.40
2017-11-22T09:27:41.930Z,10.60
2017-11-22T09:30:12.323Z,10.80
2017-11-22T09:32:40.513Z,11.10
2017-11-22T09:35:07.950Z,11.10
2017-11-22T09:37:36.193Z,11.40
2017-11-22T09:40:03.633Z,11.40
2017-11-22T09:42:31.065Z,11.60
2017-11-22T09:44:58.496Z,11.70
2017-11-22T09:47:25.933Z,11.90
2017-11-22T09:49:53.362Z,12.10
2017-11-22T09:52:20.806Z,12.30
2017-11-22T09:54:48.237Z,12.60
2017-11-22T09:57:15.671Z,12.80
2017-11-22T09:59:43.865Z,13.30
2017-11-22T10:02:11.301Z,13.30
2017-11-22T10:04:38.732Z,13.50
2017-11-22T10:07:06.174Z,13.60
2017-11-22T10:09:33.606Z,13.60
2017-11-22T10:12:01.036Z,13.70
2017-11-22T10:14:28.457Z,13.90
2017-11-22T10:17:01.478Z,14.00
2017-11-22T10:19:28.904Z,14.20
2017-11-22T10:22:01.917Z,14.30
2017-11-22T10:24:32.376Z,14.30
2017-11-22T10:27:02.130Z,14.50
2017-11-22T10:29:46.167Z,14.70
2017-11-22T10:32:19.145Z,14.80
2017-11-22T10:34:46.564Z,15.00
2017-11-22T10:37:14.014Z,15.10
2017-11-22T10:39:41.440Z,15.10
2017-11-22T10:42:09.621Z,15.20
2017-11-22T10:44:37.051Z,15.20
2017-11-22T10:47:04.481Z,15.30
2017-11-22T10:49:31.902Z,15.50
2017-11-22T10:51:59.327Z,15.70
2017-11-22T10:54:26.745Z,15.80
2017-11-22T10:56:54.175Z,15.80
2017-11-22T10:59:21.605Z,15.90
2017-11-22T11:01:49.797Z,16.00
2017-11-22T11:04:17.225Z,16.00
2017-11-22T11:06:44.650Z,16.10
2017-11-22T11:09:12.083Z,16.30
2017-11-22T11:11:39.497Z,16.50
2017-11-22T11:14:07.697Z,16.60
2017-11-22T11:16:35.120Z,16.60
2017-11-22T11:19:02.544Z,16.00
2017-11-22T11:21:29.973Z,16.80
2017-11-22T11:23:57.380Z,16.70
2017-11-22T11:26:24.809Z,16.70
2017-11-22T11:28:52.241Z,16.70
2017-11-22T11:31:19.669Z,16.50
2017-11-22T11:33:47.094Z,16.40
2017-11-22T11:36:26.119Z,16.50
2017-11-22T11:38:53.528Z,16.30
2017-11-22T11:41:20.957Z,16.20
2017-11-22T11:43:49.157Z,15.90
2017-11-22T11:46:16.578Z,15.90
2017-11-22T11:48:43.993Z,15.80
2017-11-22T11:51:11.432Z,15.90
2017-11-22T11:53:38.853Z,16.10
2017-11-22T11:56:07.068Z,16.20
2017-11-22T11:58:34.501Z,16.20
2017-11-22T12:01:01.918Z,16.40
2017-11-22T12:03:29.345Z,16.40
2017-11-22T12:05:56.765Z,16.60
2017-11-22T12:08:24.209Z,16.90
2017-11-22T12:10:51.617Z,17.30
2017-11-22T12:13:19.048Z,17.50
2017-11-22T12:15:46.473Z,17.70
2017-11-22T12:18:20.457Z,17.80
2017-11-22T12:21:04.381Z,18.00
2017-11-22T12:23:38.353Z,18.30
2017-11-22T12:26:05.774Z,18.40
2017-11-22T12:28:33.211Z,18.50
2017-11-22T12:31:00.625Z,18.60
2017-11-22T12:33:28.070Z,18.70
2017-11-22T12:35:55.486Z,18.70
2017-11-22T12:38:23.827Z,18.90
2017-11-22T12:40:51.247Z,19.00
2017-11-22T12:43:19.437Z,19.70
2017-11-22T12:45:46.855Z,19.70
2017-11-22T12:48:14.283Z,20.40
2017-11-22T12:50:41.693Z,21.60
2017-11-22T12:53:09.889Z,23.60
2017-11-22T12:55:37.301Z,23.50
2017-11-22T12:58:14.306Z,24.50
2017-11-22T13:00:41.721Z,25.50
2017-11-22T13:03:09.135Z,26.10
2017-11-22T13:05:36.552Z,26.50
2017-11-22T13:08:04.728Z,27.70
2017-11-22T13:10:33.705Z,28.00
2017-11-22T13:13:01.125Z,28.00
2017-11-22T13:15:28.555Z,28.40
2017-11-22T13:17:55.968Z,29.00
2017-11-22T13:20:23.388Z,29.30
2017-11-22T13:22:50.804Z,29.70
2017-11-22T13:25:18.238Z,29.40
2017-11-22T13:27:45.654Z,29.50
2017-11-22T13:30:13.082Z,29.90
2017-11-22T13:32:40.498Z,30.40
2017-11-22T13:35:07.929Z,30.50
2017-11-22T13:37:35.372Z,29.40
2017-11-22T13:40:02.777Z,27.00
2017-11-22T13:42:30.205Z,24.80
2017-11-22T13:44:57.620Z,23.50
2017-11-22T13:47:25.039Z,22.30
2017-11-22T13:49:52.450Z,21.60
2017-11-22T13:52:19.877Z,20.90
2017-11-22T13:54:47.295Z,20.40
2017-11-22T13:57:14.722Z,20.00
2017-11-22T13:59:42.141Z,19.40
2017-11-22T14:02:09.572Z,19.10
2017-11-22T14:04:36.984Z,18.80
2017-11-22T14:07:04.401Z,18.60
2017-11-22T14:09:31.829Z,18.30
2017-11-22T14:11:59.245Z,18.20
2017-11-22T14:14:26.703Z,18.10
2017-11-22T14:16:54.108Z,18.10
2017-11-22T14:19:21.541Z,17.90
2017-11-22T14:21:48.969Z,17.80
2017-11-22T14:24:16.377Z,17.80
2017-11-22T14:26:44.564Z,17.80
2017-11-22T14:29:11.984Z,17.70
2017-11-22T14:31:39.403Z,17.80
2017-11-22T14:34:06.833Z,17.70
2017-11-22T14:36:35.020Z,17.60
2017-11-22T14:39:02.452Z,17.60
2017-11-22T14:41:29.883Z,17.60
2017-11-22T14:43:57.312Z,17.50
2017-11-22T14:46:24.721Z,17.50
2017-11-22T14:48:52.918Z,17.30
2017-11-22T14:51:20.339Z,17.30
2017-11-22T14:53:47.758Z,17.30
2017-11-22T14:56:15.194Z,17.20
2017-11-22T14:58:42.604Z,17.20
2017-11-22T15:01:10.034Z,17.20
2017-11-22T15:03:37.462Z,17.20
2017-11-22T15:06:04.897Z,17.00
2017-11-22T15:08:32.326Z,16.90
2017-11-22T15:10:59.758Z,16.70
2017-11-22T15:13:27.181Z,16.60
2017-11-22T15:15:54.613Z,16.30
2017-11-22T15:18:22.033Z,16.10
2017-11-22T15:20:49.457Z,15.90
2017-11-22T15:23:16.901Z,15.80
2017-11-22T15:25:44.317Z,15.60
2017-11-22T15:28:11.746Z,15.40
2017-11-22T15:30:39.174Z,15.30
2017-11-22T15:33:06.596Z,15.00
2017-11-22T15:35:34.013Z,14.90
2017-11-22T15:38:01.457Z,14.80
2017-11-22T15:40:28.885Z,14.60
2017-11-22T15:42:56.317Z,14.40
2017-11-22T15:45:23.736Z,14.20
2017-11-22T15:47:51.173Z,14.00
2017-11-22T15:50:18.604Z,13.80
2017-11-22T15:52:46.053Z,13.70
2017-11-22T15:55:13.474Z,13.60
2017-11-22T15:57:40.897Z,13.50
2017-11-22T16:00:08.341Z,13.50
2017-11-22T16:02:35.761Z,13.40
2017-11-22T16:05:03.197Z,13.30
2017-11-22T16:07:30.626Z,13.30
2017-11-22T16:09:58.069Z,13.20
2017-11-22T16:12:25.494Z,13.00
2017-11-22T16:14:52.922Z,12.90
2017-11-22T16:17:20.354Z,12.80
2017-11-22T16:19:47.799Z,12.70
2017-11-22T16:22:15.212Z,12.70
2017-11-22T16:24:43.424Z,12.50
2017-11-22T16:27:10.854Z,12.50
2017-11-22T16:29:38.295Z,12.50
2017-11-22T16:32:05.719Z,12.40
2017-11-22T16:34:33.145Z,12.30
2017-11-22T16:37:00.575Z,12.20
2017-11-22T16:39:28.057Z,12.10
2017-11-22T16:41:55.469Z,12.00
2017-11-22T16:44:23.689Z,11.90
2017-11-22T16:46:51.133Z,11.90
2017-11-22T16:49:18.560Z,11.80
2017-11-22T16:51:46.007Z,11.80
2017-11-22T16:54:13.439Z,11.70
2017-11-22T16:56:40.867Z,11.60
2017-11-22T16:59:08.301Z,11.50
2017-11-22T17:01:35.721Z,11.40
2017-11-22T17:04:03.171Z,11.40
2017-11-22T17:06:30.608Z,11.30
2017-11-22T17:08:58.044Z,11.30
2017-11-22T17:11:25.473Z,11.20
2017-11-22T17:13:52.908Z,11.20
2017-11-22T17:16:21.114Z,11.50
2017-11-22T17:18:48.557Z,11.10
2017-11-22T17:21:15.982Z,11.10
2017-11-22T17:23:43.417Z,11.00
2017-11-22T17:26:11.013Z,10.90
2017-11-22T17:28:38.441Z,10.80
2017-11-22T17:31:05.872Z,10.70
2017-11-22T17:33:33.324Z,10.60
2017-11-22T17:36:00.831Z,10.50
2017-11-22T17:38:28.309Z,10.40
2017-11-22T17:40:56.677Z,10.20
2017-11-22T17:43:24.110Z,10.20
2017-11-22T17:45:51.593Z,10.10
2017-11-22T17:48:19.790Z,10.00
2017-11-22T17:50:47.230Z,10.00
2017-11-22T17:53:14.659Z,10.00
2017-11-22T17:55:42.109Z,9.90
2017-11-22T17:58:09.524Z,9.90
2017-11-22T18:00:36.966Z,9.70
2017-11-22T18:03:04.377Z,9.70
2017-11-22T18:05:31.895Z,9.60
2017-11-22T18:07:59.313Z,9.60
2017-11-22T18:10:26.771Z,9.60
2017-11-22T18:12:54.183Z,9.50
2017-11-22T18:15:21.611Z,9.40
2017-11-22T18:17:49.045Z,9.30
2017-11-22T18:20:16.472Z,9.20
2017-11-22T18:22:44.038Z,9.10
2017-11-22T18:25:11.458Z,9.10
2017-11-22T18:27:38.897Z,9.00
2017-11-22T18:30:06.329Z,8.90
2017-11-22T18:32:33.750Z,8.90
2017-11-22T18:35:01.179Z,8.90
2017-11-22T18:37:28.632Z,8.90
2017-11-22T18:39:56.071Z,8.80
2017-11-22T18:42:23.521Z,8.70
2017-11-22T18:44:51.091Z,8.70
2017-11-22T18:47:18.533Z,8.70
2017-11-22T18:49:45.942Z,8.80
2017-11-22T18:52:13.356Z,8.90
2017-11-22T18:54:40.802Z,8.90
2017-11-22T18:57:08.217Z,9.00
2017-11-22T18:59:35.647Z,9.10
2017-11-22T19:02:03.068Z,9.10
2017-11-22T19:04:30.501Z,9.10
2017-11-22T19:06:58.688Z,9.20
2017-11-22T19:09:26.126Z,9.10
2017-11-22T19:11:54.327Z,9.10
2017-11-22T19:14:21.756Z,9.10
2017-11-22T19:16:49.941Z,9.20
2017-11-22T19:19:17.381Z,9.20
2017-11-22T19:21:44.804Z,9.20
2017-11-22T19:24:12.233Z,9.20
2017-11-22T19:26:39.652Z,9.20
2017-11-22T19:29:07.850Z,9.10
2017-11-22T19:31:35.281Z,9.10
2017-11-22T19:34:02.726Z,9.10
2017-11-22T19:36:30.162Z,9.10
2017-11-22T19:38:57.572Z,9.10
2017-11-22T19:41:25.030Z,9.10
2017-11-22T19:43:52.454Z,9.00
2017-11-22T19:46:20.646Z,9.00
2017-11-22T19:48:48.092Z,9.00
2017-11-22T19:51:15.529Z,8.90
2017-11-22T19:53:42.964Z,8.90
2017-11-22T19:56:10.384Z,8.80
2017-11-22T19:58:37.814Z,8.70
2017-11-22T20:01:05.997Z,8.70
2017-11-22T20:03:33.429Z,8.70
2017-11-22T20:06:00.852Z,8.70
2017-11-22T20:08:39.994Z,8.80
2017-11-22T20:11:07.410Z,8.80
2017-11-22T20:13:34.833Z,8.90
2017-11-22T20:16:03.021Z,9.00
2017-11-22T20:18:30.459Z,9.00
2017-11-22T20:20:58.636Z,9.00
2017-11-22T20:23:26.842Z,8.90
2017-11-22T20:25:54.261Z,8.90
2017-11-22T20:28:22.486Z,8.80
2017-11-22T20:30:49.922Z,8.80
2017-11-22T20:33:17.359Z,8.80
2017-11-22T20:35:44.803Z,8.70
2017-11-22T20:38:12.220Z,8.70
2017-11-22T20:40:39.669Z,8.70
2017-11-22T20:43:07.085Z,8.70
2017-11-22T20:45:34.521Z,8.60
2017-11-22T20:48:02.722Z,8.50
2017-11-22T20:50:30.145Z,8.50
2017-11-22T20:52:57.573Z,8.50
2017-11-22T20:55:25.016Z,8.40
2017-11-22T20:57:52.436Z,8.40
2017-11-22T21:00:19.880Z,8.40
2017-11-22T21:02:48.072Z,8.30
2017-11-22T21:05:15.518Z,8.30
2017-11-22T21:07:42.949Z,8.30
2017-11-22T21:10:10.397Z,8.30
2017-11-22T21:12:37.828Z,8.20
2017-11-22T21:15:05.262Z,8.20
2017-11-22T21:17:32.718Z,8.10
2017-11-22T21:20:00.145Z,8.10
2017-11-22T21:22:28.353Z,8.00
2017-11-22T21:24:55.782Z,8.00
2017-11-22T21:27:23.221Z,7.90
2017-11-22T21:29:51.412Z,7.90
2017-11-22T21:32:18.853Z,7.80
2017-11-22T21:34:46.273Z,7.80
2017-11-22T21:37:13.717Z,7.80
2017-11-22T21:39:41.151Z,7.70
2017-11-22T21:42:08.591Z,7.70
2017-11-22T21:44:36.020Z,7.70
2017-11-22T21:47:03.477Z,7.60
2017-11-22T21:49:30.900Z,7.60
2017-11-22T21:51:58.328Z,7.60
2017-11-22T21:54:25.761Z,7.50
2017-11-22T21:56:53.957Z,7.40
2017-11-22T21:59:21.393Z,7.40
2017-11-22T22:01:49.589Z,7.40
2017-11-22T22:04:17.026Z,7.40
2017-11-22T22:06:44.452Z,7.40
2017-11-22T22:09:11.897Z,7.30
2017-11-22T22:11:39.325Z,7.30
2017-11-22T22:14:06.762Z,7.30
2017-11-22T22:16:34.189Z,7.30
2017-11-22T22:19:01.625Z,7.30
2017-11-22T22:21:29.051Z,7.30
2017-11-22T22:23:56.528Z,7.20
2017-11-22T22:26:23.928Z,7.30
2017-11-22T22:28:51.362Z,7.20
2017-11-22T22:31:18.801Z,7.30
2017-11-22T22:33:46.233Z,7.20
2017-11-22T22:36:13.688Z,7.20
2017-11-22T22:38:41.121Z,7.20
2017-11-22T22:41:08.565Z,7.20
2017-11-22T22:43:36.001Z,7.10
2017-11-22T22:46:03.437Z,7.10
2017-11-22T22:48:30.903Z,7.00
2017-11-22T22:50:58.344Z,7.00
2017-11-22T22:53:25.773Z,7.00
2017-11-22T22:55:53.218Z,6.90
2017-11-22T22:58:20.698Z,6.80
2017-11-22T23:00:48.125Z,6.80
2017-11-22T23:03:15.553Z,6.70
2017-11-22T23:05:42.986Z,6.60
2017-11-22T23:08:10.421Z,6.60
2017-11-22T23:10:37.873Z,6.50
2017-11-22T23:13:05.312Z,6.60
2017-11-22T23:15:32.729Z,6.60
2017-11-22T23:18:00.239Z,6.60
2017-11-22T23:20:27.650Z,6.60
2017-11-22T23:22:55.853Z,6.60
2017-11-22T23:25:23.286Z,6.60
2017-11-22T23:27:51.501Z,6.60
2017-11-22T23:30:18.921Z,6.60
2017-11-22T23:32:46.361Z,6.60
2017-11-22T23:35:13.793Z,6.60
2017-11-22T23:37:41.235Z,6.60
2017-11-22T23:40:08.658Z,6.50
2017-11-22T23:42:36.089Z,6.50
2017-11-22T23:45:03.517Z,6.50
2017-11-22T23:47:30.957Z,6.50
2017-11-22T23:49:58.380Z,6.50
2017-11-22T23:52:25.820Z,6.50
2017-11-22T23:54:54.028Z,6.40
2017-11-22T23:57:21.462Z,6.40
2017-11-22T23:59:48.941Z,6.40
